Flinders Island Airport


Codes: YFLI/FLS
Name: Flinders Island Airport
City: Flinders Island
Country: Australia
Elevation: 10 ft.
Website:
Wikipedia:

Photos at Flinders Island Airport


   Photos courtesy of SpottingLog. You can add your own sightings and photos by signing up for a free trial today.



No photos found.

Weather at Flinders Island Airport


Time (UTC)DescriptionTempratureWindCloud coverageVisibilityPressureHumidity
16-Jun-2024 09:00Overcast Clouds11°C18 mph, S99%10000m1019hPa65%
16-Jun-2024 12:00Overcast Clouds11°C18 mph, S99%10000m1019hPa66%
16-Jun-2024 15:00Overcast Clouds11°C16 mph, S100%10000m1019hPa67%
16-Jun-2024 18:00Overcast Clouds10°C13 mph, S100%10000m1020hPa70%
16-Jun-2024 21:00Overcast Clouds10°C13 mph, S100%10000m1021hPa66%
17-Jun-2024 00:00Overcast Clouds11°C13 mph, S100%10000m1021hPa65%
17-Jun-2024 03:00Overcast Clouds11°C11 mph, S100%10000m1020hPa63%
17-Jun-2024 06:00Overcast Clouds11°C9 mph, S100%10000m1020hPa61%
17-Jun-2024 09:00Overcast Clouds11°C11 mph, S100%10000m1021hPa57%
17-Jun-2024 12:00Overcast Clouds10°C9 mph, S95%10000m1021hPa62%
17-Jun-2024 15:00Broken Clouds11°C9 mph, SW75%10000m1020hPa54%
17-Jun-2024 18:00Overcast Clouds10°C9 mph, S87%10000m1020hPa66%
17-Jun-2024 21:00Broken Clouds10°C7 mph, S72%10000m1020hPa66%
18-Jun-2024 00:00Scattered Clouds12°C9 mph, S41%10000m1020hPa56%
18-Jun-2024 03:00Clear Sky12°C9 mph, SW8%10000m1018hPa55%
18-Jun-2024 06:00Few Clouds11°C7 mph, S19%10000m1017hPa60%
18-Jun-2024 09:00Overcast Clouds11°C4 mph, SW93%10000m1017hPa63%
18-Jun-2024 12:00Overcast Clouds11°C4 mph, S89%10000m1017hPa66%
18-Jun-2024 15:00Scattered Clouds9°C2 mph, S39%10000m1016hPa71%
18-Jun-2024 18:00Few Clouds8°C2 mph, E17%10000m1015hPa80%
18-Jun-2024 21:00Few Clouds7°C2 mph, NE13%10000m1015hPa82%
19-Jun-2024 00:00Few Clouds11°C2 mph, S15%10000m1014hPa62%
19-Jun-2024 03:00Few Clouds12°C4 mph, SW11%10000m1012hPa59%
19-Jun-2024 06:00Few Clouds10°C4 mph, SW21%10000m1012hPa69%
19-Jun-2024 09:00Few Clouds9°C4 mph, SW15%10000m1013hPa79%
19-Jun-2024 12:00Scattered Clouds9°C7 mph, W47%10000m1013hPa71%
19-Jun-2024 15:00Overcast Clouds9°C7 mph, W100%10000m1012hPa69%
19-Jun-2024 18:00Overcast Clouds9°C7 mph, SW100%10000m1011hPa68%
19-Jun-2024 21:00Overcast Clouds9°C7 mph, SW100%10000m1012hPa72%
20-Jun-2024 00:00Overcast Clouds11°C7 mph, SW90%10000m1012hPa65%
20-Jun-2024 03:00Broken Clouds12°C7 mph, SW83%10000m1011hPa68%
20-Jun-2024 06:00Broken Clouds11°C4 mph, SW75%10000m1011hPa71%
20-Jun-2024 09:00Overcast Clouds10°C7 mph, SW100%10000m1013hPa72%
20-Jun-2024 12:00Broken Clouds10°C4 mph, SW70%10000m1014hPa69%
20-Jun-2024 15:00Scattered Clouds10°C7 mph, SW27%10000m1014hPa69%
20-Jun-2024 18:00Broken Clouds11°C7 mph, SW54%10000m1015hPa67%
20-Jun-2024 21:00Overcast Clouds11°C4 mph, SW100%10000m1016hPa72%
21-Jun-2024 00:00Overcast Clouds12°C4 mph, SW100%10000m1018hPa73%
21-Jun-2024 03:00Overcast Clouds13°C4 mph, SW92%10000m1018hPa68%
21-Jun-2024 06:00Broken Clouds12°C4 mph, W67%10000m1020hPa74%